sensor_id;sensor_type;location;lat;lon;timestamp;temperature;humidity
7129;DHT22;3606;52.930;8.644;2023-04-21T00:01:12;7.80;99.90
7129;DHT22;3606;52.930;8.644;2023-04-21T00:03:38;7.80;99.90
7129;DHT22;3606;52.930;8.644;2023-04-21T00:06:06;7.90;99.90
7129;DHT22;3606;52.930;8.644;2023-04-21T00:08:32;7.90;99.90
7129;DHT22;3606;52.930;8.644;2023-04-21T00:10:58;7.90;99.90
7129;DHT22;3606;52.930;8.644;2023-04-21T00:13:24;7.90;99.90
7129;DHT22;3606;52.930;8.644;2023-04-21T00:15:50;7.80;99.90
7129;DHT22;3606;52.930;8.644;2023-04-21T00:18:15;7.80;99.90
7129;DHT22;3606;52.930;8.644;2023-04-21T00:20:42;7.90;99.90
7129;DHT22;3606;52.930;8.644;2023-04-21T00:23:09;7.90;99.90
7129;DHT22;3606;52.930;8.644;2023-04-21T00:25:35;8.00;99.90
7129;DHT22;3606;52.930;8.644;2023-04-21T00:28:01;8.00;99.90
7129;DHT22;3606;52.930;8.644;2023-04-21T00:30:26;8.00;99.90
7129;DHT22;3606;52.930;8.644;2023-04-21T00:32:52;8.10;99.90
7129;DHT22;3606;52.930;8.644;2023-04-21T00:35:18;8.20;99.90
7129;DHT22;3606;52.930;8.644;2023-04-21T00:37:43;8.30;99.90
7129;DHT22;3606;52.930;8.644;2023-04-21T00:40:09;8.30;99.90
7129;DHT22;3606;52.930;8.644;2023-04-21T00:42:35;8.30;99.90
7129;DHT22;3606;52.930;8.644;2023-04-21T00:45:04;8.30;99.90
7129;DHT22;3606;52.930;8.644;2023-04-21T00:47:30;8.30;99.90
7129;DHT22;3606;52.930;8.644;2023-04-21T00:49:57;8.30;99.90
7129;DHT22;3606;52.930;8.644;2023-04-21T00:52:23;8.30;99.90
7129;DHT22;3606;52.930;8.644;2023-04-21T00:54:49;8.20;99.90
7129;DHT22;3606;52.930;8.644;2023-04-21T00:57:15;8.10;99.90
7129;DHT22;3606;52.930;8.644;2023-04-21T00:59:41;8.00;99.90
7129;DHT22;3606;52.930;8.644;2023-04-21T01:02:07;8.00;99.90
7129;DHT22;3606;52.930;8.644;2023-04-21T01:04:33;7.90;99.90
7129;DHT22;3606;52.930;8.644;2023-04-21T01:07:04;7.90;99.90
7129;DHT22;3606;52.930;8.644;2023-04-21T01:09:30;7.80;99.90
7129;DHT22;3606;52.930;8.644;2023-04-21T01:12:07;7.80;99.90
7129;DHT22;3606;52.930;8.644;2023-04-21T01:14:37;7.80;99.90
7129;DHT22;3606;52.930;8.644;2023-04-21T01:17:03;7.80;99.90
7129;DHT22;3606;52.930;8.644;2023-04-21T01:19:35;7.80;99.90
7129;DHT22;3606;52.930;8.644;2023-04-21T01:22:04;7.80;99.90
7129;DHT22;3606;52.930;8.644;2023-04-21T01:24:46;7.80;99.90
7129;DHT22;3606;52.930;8.644;2023-04-21T01:27:16;7.70;99.90
7129;DHT22;3606;52.930;8.644;2023-04-21T01:29:43;7.70;99.90
7129;DHT22;3606;52.930;8.644;2023-04-21T01:32:14;7.70;99.90
7129;DHT22;3606;52.930;8.644;2023-04-21T01:34:41;7.60;99.90
7129;DHT22;3606;52.930;8.644;2023-04-21T01:37:08;7.60;99.90
7129;DHT22;3606;52.930;8.644;2023-04-21T01:39:37;7.50;99.90
7129;DHT22;3606;52.930;8.644;2023-04-21T01:42:03;7.60;99.90
7129;DHT22;3606;52.930;8.644;2023-04-21T01:44:30;7.60;99.90
7129;DHT22;3606;52.930;8.644;2023-04-21T01:46:55;7.60;99.90
7129;DHT22;3606;52.930;8.644;2023-04-21T01:49:21;7.60;99.90
7129;DHT22;3606;52.930;8.644;2023-04-21T01:51:46;7.60;99.90
7129;DHT22;3606;52.930;8.644;2023-04-21T01:54:12;7.50;99.90
7129;DHT22;3606;52.930;8.644;2023-04-21T01:56:38;7.50;99.90
7129;DHT22;3606;52.930;8.644;2023-04-21T01:59:04;7.50;99.90
7129;DHT22;3606;52.930;8.644;2023-04-21T02:01:29;7.50;99.90
7129;DHT22;3606;52.930;8.644;2023-04-21T02:03:55;7.50;99.90
7129;DHT22;3606;52.930;8.644;2023-04-21T02:06:20;7.50;99.90
7129;DHT22;3606;52.930;8.644;2023-04-21T02:08:46;7.40;99.90
7129;DHT22;3606;52.930;8.644;2023-04-21T02:11:12;7.40;99.90
7129;DHT22;3606;52.930;8.644;2023-04-21T02:13:37;7.30;99.90
7129;DHT22;3606;52.930;8.644;2023-04-21T02:16:03;7.30;99.90
7129;DHT22;3606;52.930;8.644;2023-04-21T02:18:28;7.20;99.90
7129;DHT22;3606;52.930;8.644;2023-04-21T02:20:54;7.20;99.90
7129;DHT22;3606;52.930;8.644;2023-04-21T02:23:23;7.20;99.90
7129;DHT22;3606;52.930;8.644;2023-04-21T02:25:49;7.20;99.90
7129;DHT22;3606;52.930;8.644;2023-04-21T02:28:14;7.20;99.90
7129;DHT22;3606;52.930;8.644;2023-04-21T02:30:40;7.10;99.90
7129;DHT22;3606;52.930;8.644;2023-04-21T02:33:05;7.10;99.90
7129;DHT22;3606;52.930;8.644;2023-04-21T02:35:31;7.10;99.90
7129;DHT22;3606;52.930;8.644;2023-04-21T02:37:58;7.10;99.90
7129;DHT22;3606;52.930;8.644;2023-04-21T02:40:24;7.10;99.90
7129;DHT22;3606;52.930;8.644;2023-04-21T02:42:49;7.20;99.90
7129;DHT22;3606;52.930;8.644;2023-04-21T02:45:15;7.20;99.90
7129;DHT22;3606;52.930;8.644;2023-04-21T02:47:41;7.30;99.90
7129;DHT22;3606;52.930;8.644;2023-04-21T02:50:06;7.20;99.90
7129;DHT22;3606;52.930;8.644;2023-04-21T02:52:35;7.30;99.90
7129;DHT22;3606;52.930;8.644;2023-04-21T02:55:02;7.20;99.90
7129;DHT22;3606;52.930;8.644;2023-04-21T02:57:28;7.30;99.90
7129;DHT22;3606;52.930;8.644;2023-04-21T02:59:54;7.30;99.90
7129;DHT22;3606;52.930;8.644;2023-04-21T03:02:19;7.20;99.90
7129;DHT22;3606;52.930;8.644;2023-04-21T03:04:45;7.20;99.90
7129;DHT22;3606;52.930;8.644;2023-04-21T03:07:12;7.30;99.90
7129;DHT22;3606;52.930;8.644;2023-04-21T03:09:38;7.20;99.90
7129;DHT22;3606;52.930;8.644;2023-04-21T03:12:04;7.20;99.90
7129;DHT22;3606;52.930;8.644;2023-04-21T03:14:29;7.30;99.90
7129;DHT22;3606;52.930;8.644;2023-04-21T03:16:55;7.30;99.90
7129;DHT22;3606;52.930;8.644;2023-04-21T03:19:20;7.30;99.90
7129;DHT22;3606;52.930;8.644;2023-04-21T03:21:46;7.30;99.90
7129;DHT22;3606;52.930;8.644;2023-04-21T03:24:12;7.30;99.90
7129;DHT22;3606;52.930;8.644;2023-04-21T03:26:38;7.10;99.90
7129;DHT22;3606;52.930;8.644;2023-04-21T03:29:07;7.10;99.90
7129;DHT22;3606;52.930;8.644;2023-04-21T03:31:32;7.10;99.90
7129;DHT22;3606;52.930;8.644;2023-04-21T03:33:58;7.00;99.90
7129;DHT22;3606;52.930;8.644;2023-04-21T03:36:24;6.90;99.90
7129;DHT22;3606;52.930;8.644;2023-04-21T03:38:49;6.90;99.90
7129;DHT22;3606;52.930;8.644;2023-04-21T03:41:15;6.80;99.90
7129;DHT22;3606;52.930;8.644;2023-04-21T03:43:41;6.70;99.90
7129;DHT22;3606;52.930;8.644;2023-04-21T03:46:06;6.70;99.90
7129;DHT22;3606;52.930;8.644;2023-04-21T03:48:32;6.70;99.90
7129;DHT22;3606;52.930;8.644;2023-04-21T03:50:57;6.70;99.90
7129;DHT22;3606;52.930;8.644;2023-04-21T03:53:23;6.60;99.90
7129;DHT22;3606;52.930;8.644;2023-04-21T03:55:51;6.50;99.90
7129;DHT22;3606;52.930;8.644;2023-04-21T03:58:17;6.50;99.90
7129;DHT22;3606;52.930;8.644;2023-04-21T04:00:43;6.50;99.90
7129;DHT22;3606;52.930;8.644;2023-04-21T04:03:08;6.60;99.90
7129;DHT22;3606;52.930;8.644;2023-04-21T04:05:37;6.60;99.90
7129;DHT22;3606;52.930;8.644;2023-04-21T04:08:02;6.50;99.90
7129;DHT22;3606;52.930;8.644;2023-04-21T04:10:28;6.50;99.90
7129;DHT22;3606;52.930;8.644;2023-04-21T04:12:53;6.40;99.90
7129;DHT22;3606;52.930;8.644;2023-04-21T04:15:19;6.50;99.90
7129;DHT22;3606;52.930;8.644;2023-04-21T04:17:45;6.50;99.90
7129;DHT22;3606;52.930;8.644;2023-04-21T04:20:11;6.50;99.90
7129;DHT22;3606;52.930;8.644;2023-04-21T04:22:37;6.60;99.90
7129;DHT22;3606;52.930;8.644;2023-04-21T04:25:02;6.60;99.90
7129;DHT22;3606;52.930;8.644;2023-04-21T04:27:29;6.60;99.90
7129;DHT22;3606;52.930;8.644;2023-04-21T04:29:55;6.60;99.90
7129;DHT22;3606;52.930;8.644;2023-04-21T04:32:22;6.60;99.90
7129;DHT22;3606;52.930;8.644;2023-04-21T04:34:47;6.50;99.90
7129;DHT22;3606;52.930;8.644;2023-04-21T04:37:13;6.40;99.90
7129;DHT22;3606;52.930;8.644;2023-04-21T04:39:38;6.30;99.90
7129;DHT22;3606;52.930;8.644;2023-04-21T04:42:07;6.20;99.90
7129;DHT22;3606;52.930;8.644;2023-04-21T04:44:36;6.10;99.90
7129;DHT22;3606;52.930;8.644;2023-04-21T04:47:01;6.00;99.90
7129;DHT22;3606;52.930;8.644;2023-04-21T04:49:27;6.00;99.90
7129;DHT22;3606;52.930;8.644;2023-04-21T04:51:52;6.10;99.90
7129;DHT22;3606;52.930;8.644;2023-04-21T04:54:18;6.10;99.90
7129;DHT22;3606;52.930;8.644;2023-04-21T04:56:44;6.10;99.90
7129;DHT22;3606;52.930;8.644;2023-04-21T04:59:09;6.10;99.90
7129;DHT22;3606;52.930;8.644;2023-04-21T05:01:35;6.20;99.90
7129;DHT22;3606;52.930;8.644;2023-04-21T05:04:02;6.20;99.90
7129;DHT22;3606;52.930;8.644;2023-04-21T05:06:28;6.20;99.90
7129;DHT22;3606;52.930;8.644;2023-04-21T05:08:54;6.30;99.90
7129;DHT22;3606;52.930;8.644;2023-04-21T05:11:20;6.40;99.90
7129;DHT22;3606;52.930;8.644;2023-04-21T05:13:46;6.50;99.90
7129;DHT22;3606;52.930;8.644;2023-04-21T05:16:11;6.60;99.90
7129;DHT22;3606;52.930;8.644;2023-04-21T05:18:37;6.60;99.90
7129;DHT22;3606;52.930;8.644;2023-04-21T05:21:03;6.70;99.90
7129;DHT22;3606;52.930;8.644;2023-04-21T05:23:29;6.80;99.90
7129;DHT22;3606;52.930;8.644;2023-04-21T05:25:55;6.90;99.90
7129;DHT22;3606;52.930;8.644;2023-04-21T05:28:20;7.20;99.90
7129;DHT22;3606;52.930;8.644;2023-04-21T05:30:47;7.40;99.90
7129;DHT22;3606;52.930;8.644;2023-04-21T05:33:13;7.60;99.90
7129;DHT22;3606;52.930;8.644;2023-04-21T05:35:38;7.90;99.90
7129;DHT22;3606;52.930;8.644;2023-04-21T05:38:05;8.20;99.90
7129;DHT22;3606;52.930;8.644;2023-04-21T05:40:30;8.30;99.90
7129;DHT22;3606;52.930;8.644;2023-04-21T05:42:56;8.50;99.90
7129;DHT22;3606;52.930;8.644;2023-04-21T05:45:21;8.50;99.90
7129;DHT22;3606;52.930;8.644;2023-04-21T05:47:47;8.70;99.90
7129;DHT22;3606;52.930;8.644;2023-04-21T05:50:12;8.80;99.90
7129;DHT22;3606;52.930;8.644;2023-04-21T05:52:38;9.10;50.50
7129;DHT22;3606;52.930;8.644;2023-04-21T05:55:04;9.20;20.70
7129;DHT22;3606;52.930;8.644;2023-04-21T05:57:29;9.40;1.00
7129;DHT22;3606;52.930;8.644;2023-04-21T05:59:55;9.60;1.00
7129;DHT22;3606;52.930;8.644;2023-04-21T06:02:21;9.80;18.00
7129;DHT22;3606;52.930;8.644;2023-04-21T06:04:47;9.90;1.00
7129;DHT22;3606;52.930;8.644;2023-04-21T06:07:12;10.10;1.00
7129;DHT22;3606;52.930;8.644;2023-04-21T06:09:38;10.40;1.00
7129;DHT22;3606;52.930;8.644;2023-04-21T06:12:04;10.50;1.00
7129;DHT22;3606;52.930;8.644;2023-04-21T06:14:30;10.70;1.00
7129;DHT22;3606;52.930;8.644;2023-04-21T06:16:56;10.90;1.00
7129;DHT22;3606;52.930;8.644;2023-04-21T06:19:21;10.80;99.90
7129;DHT22;3606;52.930;8.644;2023-04-21T06:21:47;10.90;1.00
7129;DHT22;3606;52.930;8.644;2023-04-21T06:24:12;11.20;16.50
7129;DHT22;3606;52.930;8.644;2023-04-21T06:26:38;11.40;1.00
7129;DHT22;3606;52.930;8.644;2023-04-21T06:29:04;11.50;1.00
7129;DHT22;3606;52.930;8.644;2023-04-21T06:31:29;11.60;1.00
7129;DHT22;3606;52.930;8.644;2023-04-21T06:33:55;11.80;99.90
7129;DHT22;3606;52.930;8.644;2023-04-21T06:36:20;12.20;99.90
7129;DHT22;3606;52.930;8.644;2023-04-21T06:38:47;12.30;99.90
7129;DHT22;3606;52.930;8.644;2023-04-21T06:41:13;12.70;1.00
7129;DHT22;3606;52.930;8.644;2023-04-21T06:43:39;13.00;99.90
7129;DHT22;3606;52.930;8.644;2023-04-21T06:46:05;13.00;99.90
7129;DHT22;3606;52.930;8.644;2023-04-21T06:48:30;13.10;1.00
7129;DHT22;3606;52.930;8.644;2023-04-21T06:50:56;13.40;1.00
7129;DHT22;3606;52.930;8.644;2023-04-21T06:53:22;13.50;99.90
7129;DHT22;3606;52.930;8.644;2023-04-21T06:55:47;13.80;99.90
7129;DHT22;3606;52.930;8.644;2023-04-21T06:58:13;14.00;98.70
7129;DHT22;3606;52.930;8.644;2023-04-21T07:00:39;14.30;1.00
7129;DHT22;3606;52.930;8.644;2023-04-21T07:03:04;14.10;1.00
7129;DHT22;3606;52.930;8.644;2023-04-21T07:05:31;14.20;17.60
7129;DHT22;3606;52.930;8.644;2023-04-21T07:07:56;14.40;1.00
7129;DHT22;3606;52.930;8.644;2023-04-21T07:10:25;14.60;1.00
7129;DHT22;3606;52.930;8.644;2023-04-21T07:12:50;15.00;17.30
7129;DHT22;3606;52.930;8.644;2023-04-21T07:15:16;15.20;1.00
7129;DHT22;3606;52.930;8.644;2023-04-21T07:17:41;15.60;1.00
7129;DHT22;3606;52.930;8.644;2023-04-21T07:20:07;15.50;99.90
7129;DHT22;3606;52.930;8.644;2023-04-21T07:22:33;15.70;99.90
7129;DHT22;3606;52.930;8.644;2023-04-21T07:25:03;16.20;99.90
7129;DHT22;3606;52.930;8.644;2023-04-21T07:27:33;16.50;99.90
7129;DHT22;3606;52.930;8.644;2023-04-21T07:29:59;16.50;99.90
7129;DHT22;3606;52.930;8.644;2023-04-21T07:32:25;16.60;99.90
7129;DHT22;3606;52.930;8.644;2023-04-21T07:34:50;17.10;1.00
7129;DHT22;3606;52.930;8.644;2023-04-21T07:37:17;17.10;1.00
7129;DHT22;3606;52.930;8.644;2023-04-21T07:39:42;16.80;1.00
7129;DHT22;3606;52.930;8.644;2023-04-21T07:42:08;17.10;51.50
7129;DHT22;3606;52.930;8.644;2023-04-21T07:44:35;17.40;1.00
7129;DHT22;3606;52.930;8.644;2023-04-21T07:47:00;17.90;1.00
7129;DHT22;3606;52.930;8.644;2023-04-21T07:49:26;17.50;99.90
7129;DHT22;3606;52.930;8.644;2023-04-21T07:51:52;17.60;99.90
7129;DHT22;3606;52.930;8.644;2023-04-21T07:54:17;17.80;99.90
7129;DHT22;3606;52.930;8.644;2023-04-21T07:56:43;18.10;99.90
7129;DHT22;3606;52.930;8.644;2023-04-21T07:59:08;18.30;99.90
7129;DHT22;3606;52.930;8.644;2023-04-21T08:01:34;18.40;1.00
7129;DHT22;3606;52.930;8.644;2023-04-21T08:03:59;18.00;67.60
7129;DHT22;3606;52.930;8.644;2023-04-21T08:06:25;18.20;85.10
7129;DHT22;3606;52.930;8.644;2023-04-21T08:08:51;18.40;1.00
7129;DHT22;3606;52.930;8.644;2023-04-21T08:11:18;18.70;99.90
7129;DHT22;3606;52.930;8.644;2023-04-21T08:13:44;18.90;1.00
7129;DHT22;3606;52.930;8.644;2023-04-21T08:16:09;19.20;1.00
7129;DHT22;3606;52.930;8.644;2023-04-21T08:18:35;19.60;1.00
7129;DHT22;3606;52.930;8.644;2023-04-21T08:21:01;20.30;1.00
7129;DHT22;3606;52.930;8.644;2023-04-21T08:23:26;20.50;99.90
7129;DHT22;3606;52.930;8.644;2023-04-21T08:25:55;20.40;1.00
7129;DHT22;3606;52.930;8.644;2023-04-21T08:28:20;20.40;1.00
7129;DHT22;3606;52.930;8.644;2023-04-21T08:30:46;19.90;1.00
7129;DHT22;3606;52.930;8.644;2023-04-21T08:33:11;20.10;1.00
7129;DHT22;3606;52.930;8.644;2023-04-21T08:35:41;20.20;1.00
7129;DHT22;3606;52.930;8.644;2023-04-21T08:38:07;20.80;99.90
7129;DHT22;3606;52.930;8.644;2023-04-21T08:40:35;20.70;1.00
7129;DHT22;3606;52.930;8.644;2023-04-21T08:43:01;21.50;15.70
7129;DHT22;3606;52.930;8.644;2023-04-21T08:45:27;22.00;1.00
7129;DHT22;3606;52.930;8.644;2023-04-21T08:47:54;21.90;99.90
7129;DHT22;3606;52.930;8.644;2023-04-21T08:50:24;22.00;1.00
7129;DHT22;3606;52.930;8.644;2023-04-21T08:52:51;22.30;99.90
7129;DHT22;3606;52.930;8.644;2023-04-21T08:55:16;22.60;1.00
7129;DHT22;3606;52.930;8.644;2023-04-21T08:57:42;22.30;1.00
7129;DHT22;3606;52.930;8.644;2023-04-21T09:00:08;21.90;1.00
7129;DHT22;3606;52.930;8.644;2023-04-21T09:02:52;22.10;1.00
7129;DHT22;3606;52.930;8.644;2023-04-21T09:05:25;21.90;1.00
7129;DHT22;3606;52.930;8.644;2023-04-21T09:08:13;22.00;99.90
7129;DHT22;3606;52.930;8.644;2023-04-21T09:10:50;22.50;1.00
7129;DHT22;3606;52.930;8.644;2023-04-21T09:13:17;22.80;1.00
7129;DHT22;3606;52.930;8.644;2023-04-21T09:15:50;22.30;99.90
7129;DHT22;3606;52.930;8.644;2023-04-21T09:18:20;23.00;99.90
7129;DHT22;3606;52.930;8.644;2023-04-21T09:20:49;23.00;82.50
7129;DHT22;3606;52.930;8.644;2023-04-21T09:23:15;23.00;1.00
7129;DHT22;3606;52.930;8.644;2023-04-21T09:25:42;22.80;1.00
7129;DHT22;3606;52.930;8.644;2023-04-21T09:28:09;22.80;1.00
7129;DHT22;3606;52.930;8.644;2023-04-21T09:30:36;23.50;1.00
7129;DHT22;3606;52.930;8.644;2023-04-21T09:33:03;23.50;99.90
7129;DHT22;3606;52.930;8.644;2023-04-21T09:35:35;23.90;1.00
7129;DHT22;3606;52.930;8.644;2023-04-21T09:38:03;24.70;1.00
7129;DHT22;3606;52.930;8.644;2023-04-21T09:40:29;25.10;99.90
7129;DHT22;3606;52.930;8.644;2023-04-21T09:42:55;24.80;99.90
7129;DHT22;3606;52.930;8.644;2023-04-21T09:45:25;24.50;99.90
7129;DHT22;3606;52.930;8.644;2023-04-21T09:47:57;24.20;99.90
7129;DHT22;3606;52.930;8.644;2023-04-21T09:50:24;24.20;99.90
7129;DHT22;3606;52.930;8.644;2023-04-21T09:52:52;23.90;99.90
7129;DHT22;3606;52.930;8.644;2023-04-21T09:55:20;23.90;99.90
7129;DHT22;3606;52.930;8.644;2023-04-21T09:57:47;24.40;99.90
7129;DHT22;3606;52.930;8.644;2023-04-21T10:00:14;23.70;99.90
7129;DHT22;3606;52.930;8.644;2023-04-21T10:02:48;23.90;99.90
7129;DHT22;3606;52.930;8.644;2023-04-21T10:05:14;24.10;99.90
7129;DHT22;3606;52.930;8.644;2023-04-21T10:07:40;23.70;11.60
7129;DHT22;3606;52.930;8.644;2023-04-21T10:10:25;24.00;1.00
7129;DHT22;3606;52.930;8.644;2023-04-21T10:12:52;24.10;99.90
7129;DHT22;3606;52.930;8.644;2023-04-21T10:15:40;24.60;99.90
7129;DHT22;3606;52.930;8.644;2023-04-21T10:18:21;24.80;99.90
7129;DHT22;3606;52.930;8.644;2023-04-21T10:20:54;24.50;99.90
7129;DHT22;3606;52.930;8.644;2023-04-21T10:23:30;25.40;99.90
7129;DHT22;3606;52.930;8.644;2023-04-21T10:26:09;25.20;99.90
7129;DHT22;3606;52.930;8.644;2023-04-21T10:31:51;25.10;99.90
7129;DHT22;3606;52.930;8.644;2023-04-21T10:34:36;25.30;99.90
7129;DHT22;3606;52.930;8.644;2023-04-21T10:39:32;25.30;99.90
7129;DHT22;3606;52.930;8.644;2023-04-21T10:44:41;25.30;99.90
7129;DHT22;3606;52.930;8.644;2023-04-21T10:47:07;25.10;99.90
7129;DHT22;3606;52.930;8.644;2023-04-21T10:49:37;25.40;99.90
7129;DHT22;3606;52.930;8.644;2023-04-21T10:52:05;25.70;99.90
7129;DHT22;3606;52.930;8.644;2023-04-21T10:57:13;26.40;99.90
7129;DHT22;3606;52.930;8.644;2023-04-21T10:59:39;26.40;99.90
7129;DHT22;3606;52.930;8.644;2023-04-21T11:02:06;26.10;99.90
7129;DHT22;3606;52.930;8.644;2023-04-21T11:04:32;25.50;99.90
7129;DHT22;3606;52.930;8.644;2023-04-21T11:07:12;24.90;99.90
7129;DHT22;3606;52.930;8.644;2023-04-21T11:09:40;24.30;99.90
7129;DHT22;3606;52.930;8.644;2023-04-21T11:12:11;23.90;99.90
7129;DHT22;3606;52.930;8.644;2023-04-21T11:14:38;24.40;99.90
7129;DHT22;3606;52.930;8.644;2023-04-21T11:17:10;24.70;99.90
7129;DHT22;3606;52.930;8.644;2023-04-21T11:19:37;25.40;99.90
7129;DHT22;3606;52.930;8.644;2023-04-21T11:22:03;25.20;99.90
7129;DHT22;3606;52.930;8.644;2023-04-21T11:24:29;25.40;99.90
7129;DHT22;3606;52.930;8.644;2023-04-21T11:26:55;25.50;99.90
7129;DHT22;3606;52.930;8.644;2023-04-21T11:29:21;25.30;99.90
7129;DHT22;3606;52.930;8.644;2023-04-21T11:31:47;25.30;99.90
7129;DHT22;3606;52.930;8.644;2023-04-21T11:34:14;25.20;99.90
7129;DHT22;3606;52.930;8.644;2023-04-21T11:36:43;25.20;99.90
7129;DHT22;3606;52.930;8.644;2023-04-21T11:39:13;24.80;99.90
7129;DHT22;3606;52.930;8.644;2023-04-21T11:41:45;23.90;99.90
7129;DHT22;3606;52.930;8.644;2023-04-21T11:44:11;23.10;99.90
7129;DHT22;3606;52.930;8.644;2023-04-21T11:46:43;21.80;99.90
7129;DHT22;3606;52.930;8.644;2023-04-21T11:49:11;21.50;99.90
7129;DHT22;3606;52.930;8.644;2023-04-21T11:51:39;21.70;99.90
7129;DHT22;3606;52.930;8.644;2023-04-21T11:54:07;21.80;99.90
7129;DHT22;3606;52.930;8.644;2023-04-21T11:56:55;22.70;99.90
7129;DHT22;3606;52.930;8.644;2023-04-21T11:59:22;23.40;99.90
7129;DHT22;3606;52.930;8.644;2023-04-21T12:01:52;23.70;99.90
7129;DHT22;3606;52.930;8.644;2023-04-21T12:04:19;23.80;99.90
7129;DHT22;3606;52.930;8.644;2023-04-21T12:06:46;23.60;99.90
7129;DHT22;3606;52.930;8.644;2023-04-21T12:09:16;24.10;99.90
7129;DHT22;3606;52.930;8.644;2023-04-21T12:11:47;24.20;99.90
7129;DHT22;3606;52.930;8.644;2023-04-21T12:14:14;24.10;99.90
7129;DHT22;3606;52.930;8.644;2023-04-21T12:16:41;23.60;99.90
7129;DHT22;3606;52.930;8.644;2023-04-21T12:19:06;23.50;99.90
7129;DHT22;3606;52.930;8.644;2023-04-21T12:21:32;23.30;99.90
7129;DHT22;3606;52.930;8.644;2023-04-21T12:23:57;23.00;99.90
7129;DHT22;3606;52.930;8.644;2023-04-21T12:26:23;22.90;99.90
7129;DHT22;3606;52.930;8.644;2023-04-21T12:28:49;23.30;99.90
7129;DHT22;3606;52.930;8.644;2023-04-21T12:31:16;23.50;99.90
7129;DHT22;3606;52.930;8.644;2023-04-21T12:33:42;23.50;99.90
7129;DHT22;3606;52.930;8.644;2023-04-21T12:36:07;23.50;99.90
7129;DHT22;3606;52.930;8.644;2023-04-21T12:38:33;23.50;99.90
7129;DHT22;3606;52.930;8.644;2023-04-21T12:40:58;23.70;99.90
7129;DHT22;3606;52.930;8.644;2023-04-21T12:43:24;24.10;99.90
7129;DHT22;3606;52.930;8.644;2023-04-21T12:45:50;24.10;99.90
7129;DHT22;3606;52.930;8.644;2023-04-21T12:48:17;24.60;99.90
7129;DHT22;3606;52.930;8.644;2023-04-21T12:50:44;24.50;99.90
7129;DHT22;3606;52.930;8.644;2023-04-21T12:53:11;23.90;99.90
7129;DHT22;3606;52.930;8.644;2023-04-21T12:55:37;23.90;99.90
7129;DHT22;3606;52.930;8.644;2023-04-21T12:58:02;24.20;99.90
7129;DHT22;3606;52.930;8.644;2023-04-21T13:00:28;24.40;99.90
7129;DHT22;3606;52.930;8.644;2023-04-21T13:02:54;25.00;99.90
7129;DHT22;3606;52.930;8.644;2023-04-21T13:05:19;24.90;99.90
7129;DHT22;3606;52.930;8.644;2023-04-21T13:07:45;25.30;99.90
7129;DHT22;3606;52.930;8.644;2023-04-21T13:10:11;25.90;99.90
7129;DHT22;3606;52.930;8.644;2023-04-21T13:12:36;25.90;99.90
7129;DHT22;3606;52.930;8.644;2023-04-21T13:15:02;25.90;99.90
7129;DHT22;3606;52.930;8.644;2023-04-21T13:17:29;26.40;99.90
7129;DHT22;3606;52.930;8.644;2023-04-21T13:19:55;26.80;99.90
7129;DHT22;3606;52.930;8.644;2023-04-21T13:22:21;26.10;99.90
7129;DHT22;3606;52.930;8.644;2023-04-21T13:24:47;25.90;99.90
7129;DHT22;3606;52.930;8.644;2023-04-21T13:27:12;26.40;99.90
7129;DHT22;3606;52.930;8.644;2023-04-21T13:29:38;26.80;99.90
7129;DHT22;3606;52.930;8.644;2023-04-21T13:32:05;26.80;99.90
7129;DHT22;3606;52.930;8.644;2023-04-21T13:34:32;27.10;99.90
7129;DHT22;3606;52.930;8.644;2023-04-21T13:36:59;27.20;99.90
7129;DHT22;3606;52.930;8.644;2023-04-21T13:39:25;26.70;99.90
7129;DHT22;3606;52.930;8.644;2023-04-21T13:41:51;27.40;99.90
7129;DHT22;3606;52.930;8.644;2023-04-21T13:44:17;27.00;99.90
7129;DHT22;3606;52.930;8.644;2023-04-21T13:46:43;26.40;99.90
7129;DHT22;3606;52.930;8.644;2023-04-21T13:49:09;26.40;99.90
7129;DHT22;3606;52.930;8.644;2023-04-21T13:51:35;25.60;99.90
7129;DHT22;3606;52.930;8.644;2023-04-21T13:54:00;25.50;99.90
7129;DHT22;3606;52.930;8.644;2023-04-21T13:56:26;25.60;99.90
7129;DHT22;3606;52.930;8.644;2023-04-21T13:58:51;24.60;99.90
7129;DHT22;3606;52.930;8.644;2023-04-21T14:01:17;25.00;99.90
7129;DHT22;3606;52.930;8.644;2023-04-21T14:03:43;25.40;99.90
7129;DHT22;3606;52.930;8.644;2023-04-21T14:06:08;24.90;99.90
7129;DHT22;3606;52.930;8.644;2023-04-21T14:08:34;24.60;99.90
7129;DHT22;3606;52.930;8.644;2023-04-21T14:11:00;25.20;99.90
7129;DHT22;3606;52.930;8.644;2023-04-21T14:13:25;26.10;99.90
7129;DHT22;3606;52.930;8.644;2023-04-21T14:15:54;26.60;99.90
7129;DHT22;3606;52.930;8.644;2023-04-21T14:18:19;26.40;99.90
7129;DHT22;3606;52.930;8.644;2023-04-21T14:20:45;25.50;99.90
7129;DHT22;3606;52.930;8.644;2023-04-21T14:23:10;25.60;99.90
7129;DHT22;3606;52.930;8.644;2023-04-21T14:25:36;24.80;99.90
7129;DHT22;3606;52.930;8.644;2023-04-21T14:28:02;23.70;99.90
7129;DHT22;3606;52.930;8.644;2023-04-21T14:30:32;23.70;99.90
7129;DHT22;3606;52.930;8.644;2023-04-21T14:32:57;24.20;99.90
7129;DHT22;3606;52.930;8.644;2023-04-21T14:35:23;25.20;99.90
7129;DHT22;3606;52.930;8.644;2023-04-21T14:37:48;26.40;99.90
7129;DHT22;3606;52.930;8.644;2023-04-21T14:40:14;26.70;99.90
7129;DHT22;3606;52.930;8.644;2023-04-21T14:42:40;26.50;99.90
7129;DHT22;3606;52.930;8.644;2023-04-21T14:45:06;26.20;99.90
7129;DHT22;3606;52.930;8.644;2023-04-21T14:47:32;25.70;99.90
7129;DHT22;3606;52.930;8.644;2023-04-21T14:49:59;25.80;99.90
7129;DHT22;3606;52.930;8.644;2023-04-21T14:52:25;25.50;99.90
7129;DHT22;3606;52.930;8.644;2023-04-21T14:54:51;26.00;99.90
7129;DHT22;3606;52.930;8.644;2023-04-21T14:57:17;26.40;99.90
7129;DHT22;3606;52.930;8.644;2023-04-21T14:59:42;25.90;99.90
7129;DHT22;3606;52.930;8.644;2023-04-21T15:02:11;25.40;99.90
7129;DHT22;3606;52.930;8.644;2023-04-21T15:04:37;25.10;99.90
7129;DHT22;3606;52.930;8.644;2023-04-21T15:07:02;24.50;99.90
7129;DHT22;3606;52.930;8.644;2023-04-21T15:09:28;24.10;99.90
7129;DHT22;3606;52.930;8.644;2023-04-21T15:11:54;24.00;99.90
7129;DHT22;3606;52.930;8.644;2023-04-21T15:14:20;24.00;99.90
7129;DHT22;3606;52.930;8.644;2023-04-21T15:16:46;24.20;99.90
7129;DHT22;3606;52.930;8.644;2023-04-21T15:19:11;24.40;99.90
7129;DHT22;3606;52.930;8.644;2023-04-21T15:21:38;24.70;99.90
7129;DHT22;3606;52.930;8.644;2023-04-21T15:24:04;24.60;99.90
7129;DHT22;3606;52.930;8.644;2023-04-21T15:26:29;24.70;99.90
7129;DHT22;3606;52.930;8.644;2023-04-21T15:28:55;24.80;99.90
7129;DHT22;3606;52.930;8.644;2023-04-21T15:31:22;24.20;99.90
7129;DHT22;3606;52.930;8.644;2023-04-21T15:33:47;23.30;99.90
7129;DHT22;3606;52.930;8.644;2023-04-21T15:36:13;22.50;99.90
7129;DHT22;3606;52.930;8.644;2023-04-21T15:38:39;21.80;99.90
7129;DHT22;3606;52.930;8.644;2023-04-21T15:41:05;21.50;99.90
7129;DHT22;3606;52.930;8.644;2023-04-21T15:43:30;21.20;99.90
7129;DHT22;3606;52.930;8.644;2023-04-21T15:45:56;21.00;99.90
7129;DHT22;3606;52.930;8.644;2023-04-21T15:48:21;20.70;99.90
7129;DHT22;3606;52.930;8.644;2023-04-21T15:50:47;20.80;99.90
7129;DHT22;3606;52.930;8.644;2023-04-21T15:53:13;20.70;99.90
7129;DHT22;3606;52.930;8.644;2023-04-21T15:55:38;20.70;99.90
7129;DHT22;3606;52.930;8.644;2023-04-21T15:58:04;20.60;99.90
7129;DHT22;3606;52.930;8.644;2023-04-21T16:00:30;20.50;99.90
7129;DHT22;3606;52.930;8.644;2023-04-21T16:02:57;20.50;99.90
7129;DHT22;3606;52.930;8.644;2023-04-21T16:05:22;20.50;99.90
7129;DHT22;3606;52.930;8.644;2023-04-21T16:07:48;20.50;99.90
7129;DHT22;3606;52.930;8.644;2023-04-21T16:10:13;20.40;99.90
7129;DHT22;3606;52.930;8.644;2023-04-21T16:12:39;20.40;99.90
7129;DHT22;3606;52.930;8.644;2023-04-21T16:15:05;20.20;99.90
7129;DHT22;3606;52.930;8.644;2023-04-21T16:17:32;20.20;99.90